Time;durP1;ratioP1;P1;durP2;ratioP2;P2;SDS_P1;SDS_P2;PMS_P1;PMS_P2;Temp;Humidity;BMP_temperature;BMP_pressure;BME280_temperature;BME280_humidity;BME280_pressure;Samples;Min_cycle;Max_cycle;Signal;HPM_P1;HPM_P2
2023/04/13 00:00:07;;;;;;;3.17;0.50;;;;;;;10.00;71.65;99195.44;5024519;28;20430;-75
2023/04/13 00:02:37;;;;;;;0.90;0.30;;;;;;;9.96;71.67;99205.19;5019075;28;20401;-75
2023/04/13 00:05:04;;;;;;;1.40;0.40;;;;;;;9.94;71.49;99199.25;5019189;28;20911;-75
2023/04/13 00:07:32;;;;;;;0.95;0.40;;;;;;;9.98;71.64;99199.50;5026743;28;20411;-75
2023/04/13 00:10:01;;;;;;;0.70;0.50;;;;;;;10.00;71.36;99206.28;5040381;28;20426;-75
2023/04/13 00:12:26;;;;;;;3.40;0.40;;;;;;;9.88;71.24;99206.53;5018178;28;20397;-74
2023/04/13 00:14:51;;;;;;;1.52;0.50;;;;;;;9.76;71.21;99199.75;5028212;28;20915;-75
2023/04/13 00:17:17;;;;;;;1.00;0.30;;;;;;;9.71;70.74;99199.78;5025342;28;20407;-74
2023/04/13 00:19:46;;;;;;;2.30;0.40;;;;;;;9.73;70.79;99200.31;5023103;28;20469;-75
2023/04/13 00:22:12;;;;;;;0.73;0.40;;;;;;;9.80;70.68;99198.97;5028305;28;20391;-75
2023/04/13 00:24:37;;;;;;;0.90;0.28;;;;;;;9.54;71.14;99194.63;5014803;28;20423;-75
2023/04/13 00:27:03;;;;;;;0.53;0.50;;;;;;;9.31;72.30;99195.94;5034744;28;20417;-74
2023/04/13 00:29:29;;;;;;;0.80;0.47;;;;;;;9.34;72.11;99187.28;5028756;28;20409;-74
2023/04/13 00:31:54;;;;;;;2.10;0.80;;;;;;;9.45;71.62;99177.28;5042643;28;20948;-74
2023/04/13 00:34:20;;;;;;;1.27;0.30;;;;;;;9.29;71.48;99191.84;5041521;28;20436;-74
2023/04/13 00:36:45;;;;;;;0.70;0.47;;;;;;;9.37;72.19;99191.34;5043403;28;20864;-75
2023/04/13 00:39:10;;;;;;;1.10;0.60;;;;;;;9.26;72.39;99195.09;5029125;28;20408;-75
2023/04/13 00:41:36;;;;;;;0.75;0.25;;;;;;;9.30;72.10;99196.19;5025935;28;20403;-75
2023/04/13 00:44:01;;;;;;;2.20;0.30;;;;;;;9.42;71.98;99196.75;5021149;28;20450;-75
2023/04/13 00:46:28;;;;;;;1.17;0.30;;;;;;;9.45;71.22;99201.63;5028404;28;20411;-75
2023/04/13 00:48:54;;;;;;;0.40;0.38;;;;;;;9.48;71.33;99190.28;5021153;28;20395;-75
2023/04/13 00:51:20;;;;;;;0.75;0.30;;;;;;;9.60;70.96;99192.72;5031078;28;20429;-75
2023/04/13 00:53:48;;;;;;;1.00;0.50;;;;;;;9.60;71.09;99193.53;5032679;28;20447;-75
2023/04/13 00:56:14;;;;;;;0.55;0.50;;;;;;;9.45;71.03;99190.78;5016732;28;20795;-75
2023/04/13 00:58:39;;;;;;;0.50;0.30;;;;;;;9.24;71.22;99189.16;5023117;28;20886;-75
2023/04/13 01:01:04;;;;;;;0.60;0.30;;;;;;;9.06;71.45;99195.84;5021745;28;20443;-75
2023/04/13 01:03:30;;;;;;;1.60;0.30;;;;;;;9.02;71.52;99196.66;5027712;28;20398;-74
2023/04/13 01:06:10;;;;;;;1.65;0.45;;;;;;;9.08;71.38;99191.00;5033228;28;20421;-75
2023/04/13 01:08:40;;;;;;;2.35;0.43;;;;;;;9.18;70.99;99188.34;5024483;28;20393;-75
2023/04/13 01:11:49;;;;;;;1.80;0.60;;;;;;;9.31;70.61;99193.22;5025513;28;20482;-75
2023/04/13 01:14:47;;;;;;;1.10;0.30;;;;;;;9.27;70.15;99183.22;5018488;28;20621;-75
2023/04/13 01:17:20;;;;;;;0.70;0.30;;;;;;;9.26;69.78;99185.09;5018017;28;20392;-75
2023/04/13 01:19:58;;;;;;;2.90;0.40;;;;;;;9.30;69.49;99188.91;5015575;28;20387;-75
2023/04/13 01:22:28;;;;;;;1.30;0.40;;;;;;;9.27;69.45;99194.03;5043795;28;20390;-75
2023/04/13 01:25:13;;;;;;;2.70;0.40;;;;;;;9.12;69.93;99194.78;5027681;28;20405;-75
2023/04/13 01:27:45;;;;;;;0.60;0.30;;;;;;;9.11;69.77;99195.88;5027109;28;20428;-74
2023/04/13 01:30:13;;;;;;;2.67;0.47;;;;;;;9.06;69.84;99195.84;5028086;28;20480;-75
2023/04/13 01:32:40;;;;;;;4.90;0.40;;;;;;;9.08;69.78;99193.72;5024214;28;20391;-75
2023/04/13 01:35:09;;;;;;;3.67;0.30;;;;;;;8.93;70.44;99196.34;5027722;28;20892;-76
2023/04/13 01:37:35;;;;;;;1.80;0.40;;;;;;;9.07;70.79;99199.38;5012446;28;20397;-75
2023/04/13 01:40:00;;;;;;;1.70;0.50;;;;;;;9.13;70.55;99193.72;5018655;28;20874;-75
2023/04/13 01:42:26;;;;;;;3.60;0.50;;;;;;;9.07;71.28;99200.19;5027555;28;20396;-75
2023/04/13 01:44:51;;;;;;;0.50;0.40;;;;;;;9.10;71.14;99194.25;5027375;28;20451;-75
2023/04/13 01:47:19;;;;;;;4.40;0.35;;;;;;;8.95;71.88;99194.22;5022715;28;20385;-75
2023/04/13 01:49:54;;;;;;;0.88;0.30;;;;;;;8.89;72.01;99194.44;5019306;28;20397;-75
2023/04/13 01:52:21;;;;;;;2.17;0.60;;;;;;;8.88;72.23;99190.13;5039773;28;20449;-75
2023/04/13 01:54:48;;;;;;;1.85;0.45;;;;;;;8.92;72.19;99186.63;5016058;28;20399;-75
2023/04/13 01:57:16;;;;;;;1.88;0.68;;;;;;;8.92;71.97;99180.41;5015259;28;20474;-75
2023/04/13 01:59:43;;;;;;;1.45;0.40;;;;;;;8.97;71.64;99188.53;5024070;28;20401;-74
2023/04/13 02:02:09;;;;;;;5.05;0.55;;;;;;;8.96;71.43;99193.09;5023937;28;20395;-75
2023/04/13 02:04:34;;;;;;;2.00;0.40;;;;;;;8.97;71.49;99185.81;5036127;28;20422;-75
2023/04/13 02:06:59;;;;;;;1.73;0.40;;;;;;;8.89;71.12;99183.66;5028932;28;20400;-74
2023/04/13 02:09:27;;;;;;;1.60;0.30;;;;;;;8.87;71.40;99189.28;5033849;28;20391;-75
2023/04/13 02:11:52;;;;;;;0.77;0.32;;;;;;;8.89;71.18;99189.03;5020802;28;20462;-75
2023/04/13 02:14:18;;;;;;;1.95;0.47;;;;;;;8.96;70.81;99184.22;5042035;28;20497;-75
2023/04/13 02:16:43;;;;;;;0.77;0.30;;;;;;;9.07;70.95;99188.56;5015565;28;20401;-75
2023/04/13 02:19:09;;;;;;;1.20;0.50;;;;;;;9.16;70.27;99189.66;5025264;28;20408;-75
2023/04/13 02:21:35;;;;;;;1.58;0.50;;;;;;;9.15;70.08;99186.16;5034457;28;20761;-75
2023/04/13 02:24:00;;;;;;;2.50;0.77;;;;;;;9.16;70.13;99184.25;5011814;28;20396;-75
2023/04/13 02:26:26;;;;;;;1.70;0.40;;;;;;;9.13;70.13;99185.59;5027709;28;20411;-75
2023/04/13 02:28:51;;;;;;;1.60;0.50;;;;;;;9.07;70.05;99175.03;5016962;28;20395;-75
2023/04/13 02:31:18;;;;;;;3.60;0.57;;;;;;;9.11;69.45;99186.94;5022653;28;20884;-75
2023/04/13 02:33:45;;;;;;;1.20;0.30;;;;;;;9.16;69.81;99184.25;5021179;28;20535;-75
2023/04/13 02:36:11;;;;;;;1.58;0.52;;;;;;;9.14;69.62;99184.53;5027813;28;20401;-75
2023/04/13 02:38:36;;;;;;;1.50;0.32;;;;;;;9.17;69.42;99189.41;5012395;28;20923;-75
2023/04/13 02:41:02;;;;;;;3.10;0.60;;;;;;;9.20;69.41;99186.16;5033052;28;20393;-75
2023/04/13 02:43:28;;;;;;;2.87;0.83;;;;;;;9.23;69.39;99190.22;5015699;28;20395;-74
2023/04/13 02:45:54;;;;;;;2.20;0.83;;;;;;;9.24;69.00;99184.56;5042171;28;20411;-75
2023/04/13 02:48:19;;;;;;;1.75;0.60;;;;;;;9.30;68.78;99197.00;5018938;28;20490;-75
2023/04/13 02:50:45;;;;;;;2.33;0.70;;;;;;;9.33;68.29;99199.16;5043289;28;20487;-75
2023/04/13 02:53:11;;;;;;;4.85;1.45;;;;;;;9.30;68.01;99204.28;5041736;28;20437;-76
2023/04/13 02:55:37;;;;;;;2.88;1.05;;;;;;;9.28;68.03;99206.47;5034760;28;20808;-75
2023/04/13 02:58:03;;;;;;;1.55;0.77;;;;;;;9.31;67.89;99204.03;5017985;28;20396;-75
2023/04/13 03:00:28;;;;;;;4.05;0.82;;;;;;;9.38;67.71;99196.47;5043858;28;20480;-75
2023/04/13 03:02:54;;;;;;;2.75;0.47;;;;;;;9.40;67.55;99204.31;5040557;28;20445;-75
2023/04/13 03:05:19;;;;;;;3.03;0.67;;;;;;;9.35;66.90;99212.44;5036219;28;20412;-75
2023/04/13 03:07:44;;;;;;;2.47;1.20;;;;;;;9.26;67.19;99214.81;5029994;28;20395;-75
2023/04/13 03:10:10;;;;;;;1.63;0.77;;;;;;;9.32;66.99;99208.34;5013896;28;20389;-75
2023/04/13 03:12:35;;;;;;;2.70;0.95;;;;;;;9.36;66.63;99216.75;5037685;28;20750;-75
2023/04/13 03:15:05;;;;;;;2.00;1.03;;;;;;;9.37;66.50;99210.25;5020819;28;20480;-75
2023/04/13 03:17:31;;;;;;;2.65;0.60;;;;;;;9.38;66.60;99217.31;5031906;28;20379;-76
2023/04/13 03:19:56;;;;;;;3.23;0.97;;;;;;;9.38;66.21;99209.19;5029912;28;20389;-75
2023/04/13 03:22:22;;;;;;;3.05;0.90;;;;;;;9.35;66.68;99212.44;5023271;28;20383;-75
2023/04/13 03:24:48;;;;;;;5.97;1.80;;;;;;;9.38;66.66;99215.38;5020937;28;20403;-75
2023/04/13 03:27:13;;;;;;;13.33;2.83;;;;;;;9.41;66.20;99219.47;5030503;28;20874;-75
2023/04/13 03:29:38;;;;;;;4.10;0.97;;;;;;;9.43;66.16;99222.72;5030480;28;20396;-76
2023/04/13 03:32:04;;;;;;;3.93;2.50;;;;;;;9.43;65.89;99222.72;5022018;28;20809;-75
2023/04/13 03:34:29;;;;;;;4.40;0.90;;;;;;;9.42;65.64;99225.69;5023435;28;20768;-75
2023/04/13 03:36:55;;;;;;;5.30;1.13;;;;;;;9.45;65.94;99225.16;5028203;28;20485;-75
2023/04/13 03:39:20;;;;;;;5.63;1.50;;;;;;;9.49;65.30;99231.63;5018258;28;20392;-75
2023/04/13 03:41:45;;;;;;;5.87;1.43;;;;;;;9.45;65.47;99236.75;5027991;28;20907;-76
2023/04/13 03:44:11;;;;;;;5.33;0.90;;;;;;;9.44;65.06;99232.47;5024318;28;20451;-75
2023/04/13 03:46:36;;;;;;;3.53;0.77;;;;;;;9.47;65.47;99231.09;5026154;28;20862;-75
2023/04/13 03:49:11;;;;;;;3.28;0.50;;;;;;;9.50;65.16;99233.28;5032050;28;20395;-75
2023/04/13 03:51:37;;;;;;;2.85;0.77;;;;;;;9.50;64.92;99239.50;5042682;28;20780;-75
2023/04/13 03:54:02;;;;;;;2.17;0.60;;;;;;;9.47;64.55;99239.22;5038705;28;20387;-75
2023/04/13 03:56:28;;;;;;;5.33;1.03;;;;;;;9.44;64.86;99239.75;5020031;28;20396;-75
2023/04/13 03:58:54;;;;;;;2.83;0.83;;;;;;;9.51;64.10;99237.59;5030162;28;20872;-75
2023/04/13 04:01:20;;;;;;;4.20;1.17;;;;;;;9.55;64.58;99244.91;5019553;28;20489;-75
2023/04/13 04:03:45;;;;;;;4.33;0.70;;;;;;;9.49;64.55;99250.56;5029118;28;20438;-75
2023/04/13 04:06:10;;;;;;;2.50;0.70;;;;;;;9.50;63.81;99253.03;5026914;28;20866;-76
2023/04/13 04:08:35;;;;;;;3.90;0.70;;;;;;;9.55;64.15;99252.22;5031824;28;20406;-75
2023/04/13 04:11:01;;;;;;;3.40;1.00;;;;;;;9.58;63.61;99255.19;5033457;28;20438;-75
2023/04/13 04:13:26;;;;;;;1.47;0.67;;;;;;;9.58;63.94;99257.88;5025629;28;20405;-75
2023/04/13 04:15:51;;;;;;;5.07;1.00;;;;;;;9.56;63.54;99256.53;5025606;28;20457;-75
2023/04/13 04:18:17;;;;;;;4.33;0.83;;;;;;;9.52;63.32;99258.97;5018114;28;20405;-75
2023/04/13 04:20:42;;;;;;;4.40;1.03;;;;;;;9.56;62.93;99246.53;5028408;28;20411;-76
2023/04/13 04:23:08;;;;;;;3.90;0.70;;;;;;;9.60;62.71;99263.03;5029025;28;20435;-75
2023/04/13 04:25:36;;;;;;;1.73;0.88;;;;;;;9.60;63.12;99261.16;5024099;28;20426;-75
2023/04/13 04:28:02;;;;;;;2.58;1.17;;;;;;;9.65;62.76;99258.44;5018780;28;20710;-75
2023/04/13 04:30:32;;;;;;;3.30;1.00;;;;;;;9.62;62.59;99267.09;5029618;28;20392;-76
2023/04/13 04:32:58;;;;;;;6.95;1.48;;;;;;;9.61;63.13;99276.31;5020303;28;20392;-76
2023/04/13 04:35:32;;;;;;;5.07;1.10;;;;;;;9.58;63.23;99273.34;5022926;28;20743;-76
2023/04/13 04:37:59;;;;;;;2.90;1.25;;;;;;;9.57;63.21;99282.50;5031989;28;20426;-76
2023/04/13 04:40:24;;;;;;;3.25;0.77;;;;;;;9.56;62.58;99284.41;5017049;28;20778;-75
2023/04/13 04:42:50;;;;;;;6.70;1.90;;;;;;;9.54;63.07;99277.63;5025974;28;20392;-75
2023/04/13 04:45:15;;;;;;;6.40;1.77;;;;;;;9.56;63.01;99286.28;5022541;28;20414;-75
2023/04/13 04:47:42;;;;;;;3.87;0.83;;;;;;;9.58;62.78;99281.44;5048321;28;20410;-74
2023/04/13 04:50:09;;;;;;;4.80;1.23;;;;;;;9.51;62.64;99289.00;5016820;28;20407;-75
2023/04/13 04:52:34;;;;;;;2.72;1.05;;;;;;;9.53;62.57;99289.53;5026078;28;20455;-75
2023/04/13 04:54:59;;;;;;;3.87;0.90;;;;;;;9.56;62.95;99291.69;5011838;28;20896;-76
2023/04/13 04:57:25;;;;;;;4.37;1.00;;;;;;;9.59;63.11;99291.97;5031516;28;20391;-76
2023/04/13 04:59:50;;;;;;;4.90;1.10;;;;;;;9.60;62.62;99299.03;5016689;28;20388;-75
2023/04/13 05:02:16;;;;;;;4.60;1.20;;;;;;;9.60;62.55;99303.63;5026121;28;20431;-75
2023/04/13 05:04:41;;;;;;;6.00;0.93;;;;;;;9.64;62.55;99312.84;5012577;28;20452;-75
2023/04/13 05:07:06;;;;;;;2.40;0.70;;;;;;;9.64;62.00;99310.13;5028938;28;20411;-75
2023/04/13 05:09:32;;;;;;;2.50;0.67;;;;;;;9.59;62.19;99310.09;5030385;28;20395;-76
2023/04/13 05:11:58;;;;;;;3.97;1.20;;;;;;;9.60;61.89;99319.84;5031165;28;20399;-75
2023/04/13 05:14:23;;;;;;;3.20;0.70;;;;;;;9.61;62.39;99318.78;5030171;28;20407;-74
2023/04/13 05:16:49;;;;;;;6.40;2.10;;;;;;;9.64;61.98;99318.25;5030974;28;20486;-75
2023/04/13 05:19:14;;;;;;;6.05;1.00;;;;;;;9.63;61.80;99322.84;5017703;28;20401;-75
2023/04/13 05:21:40;;;;;;;4.80;1.40;;;;;;;9.66;62.21;99325.00;5030068;28;20463;-76
2023/04/13 05:24:05;;;;;;;2.97;1.20;;;;;;;9.65;62.20;99331.47;5019361;28;20395;-75
2023/04/13 05:26:31;;;;;;;8.00;1.30;;;;;;;9.71;62.00;99319.63;5022071;28;20419;-75
2023/04/13 05:28:56;;;;;;;2.97;0.77;;;;;;;9.69;61.92;99319.06;5027687;28;20737;-76
2023/04/13 05:31:23;;;;;;;3.33;0.73;;;;;;;9.66;62.00;99324.19;5028623;28;20423;-75
2023/04/13 05:33:48;;;;;;;5.07;0.90;;;;;;;9.58;61.86;99325.50;5029098;28;20416;-75
2023/04/13 05:36:13;;;;;;;5.13;0.80;;;;;;;9.56;62.28;99314.16;5030196;28;20419;-76
2023/04/13 05:38:39;;;;;;;6.53;1.40;;;;;;;9.59;61.85;99323.63;5023552;28;20445;-75
2023/04/13 05:41:04;;;;;;;5.50;0.93;;;;;;;9.56;62.46;99326.84;5025486;28;20415;-76
2023/04/13 05:43:30;;;;;;;2.72;1.00;;;;;;;9.58;62.55;99336.31;5033799;28;20406;-75
2023/04/13 05:45:55;;;;;;;3.03;0.93;;;;;;;9.64;61.80;99337.19;5025633;28;20411;-76
2023/04/13 05:48:20;;;;;;;6.77;1.70;;;;;;;9.67;62.34;99340.16;5035542;28;20442;-76
2023/04/13 05:50:46;;;;;;;3.70;1.10;;;;;;;9.64;61.85;99339.88;5033338;28;20842;-75
2023/04/13 05:53:11;;;;;;;5.23;1.40;;;;;;;9.60;62.09;99334.19;5041704;28;20415;-75
2023/04/13 05:55:39;;;;;;;3.88;0.93;;;;;;;9.58;62.56;99339.03;5039677;28;20428;-75
2023/04/13 05:58:04;;;;;;;6.50;1.13;;;;;;;9.63;62.53;99338.25;5054660;28;20760;-75
2023/04/13 06:00:29;;;;;;;3.27;0.90;;;;;;;9.59;62.13;99337.97;5029150;28;20414;-76
2023/04/13 06:02:55;;;;;;;4.57;1.97;;;;;;;9.59;62.54;99339.84;5030769;28;20791;-76
2023/04/13 06:05:21;;;;;;;4.07;1.50;;;;;;;9.61;62.51;99343.94;5026463;28;20427;-75
2023/04/13 06:07:46;;;;;;;4.45;1.30;;;;;;;9.60;62.60;99347.72;5041920;28;20427;-75
2023/04/13 06:10:15;;;;;;;6.80;2.33;;;;;;;9.62;62.47;99352.84;5031113;28;20549;-76
2023/04/13 06:12:41;;;;;;;13.68;1.88;;;;;;;9.66;62.40;99359.34;5033761;28;20828;-76
2023/04/13 06:15:08;;;;;;;6.60;1.50;;;;;;;9.63;62.14;99355.28;5027676;28;20898;-76
2023/04/13 06:17:34;;;;;;;5.22;0.95;;;;;;;9.65;62.64;99352.34;5028246;28;20487;-76
2023/04/13 06:19:59;;;;;;;5.43;1.13;;;;;;;9.71;62.20;99346.69;5044559;28;20403;-75
2023/04/13 06:22:25;;;;;;;3.83;0.95;;;;;;;9.81;61.75;99354.00;5032975;28;20852;-75
2023/04/13 06:24:53;;;;;;;4.93;0.73;;;;;;;9.80;62.32;99345.06;5029998;28;20432;-76
2023/04/13 06:27:18;;;;;;;4.90;1.17;;;;;;;9.84;62.10;99339.94;5034923;28;20434;-78
2023/04/13 06:29:44;;;;;;;8.80;1.00;;;;;;;9.77;62.35;99352.91;5024980;28;20410;-77
2023/04/13 06:32:10;;;;;;;7.10;1.40;;;;;;;9.67;62.23;99351.00;5032994;28;20420;-76
2023/04/13 06:34:36;;;;;;;5.22;1.10;;;;;;;9.74;62.97;99362.38;5029822;28;20904;-76
2023/04/13 06:37:02;;;;;;;4.80;0.70;;;;;;;9.81;62.44;99362.91;5042459;28;20404;-75
2023/04/13 06:39:28;;;;;;;5.70;1.38;;;;;;;9.81;62.02;99367.53;5019650;28;20468;-77
2023/04/13 06:41:53;;;;;;;4.13;1.50;;;;;;;9.84;62.32;99359.69;5019676;28;20752;-77
2023/04/13 06:44:18;;;;;;;7.53;2.13;;;;;;;9.91;62.21;99362.94;5054720;28;20430;-77
2023/04/13 06:46:44;;;;;;;1.97;1.00;;;;;;;9.96;62.02;99366.75;5039574;28;20403;-76
2023/04/13 06:49:09;;;;;;;4.93;0.87;;;;;;;10.00;61.76;99367.84;5025874;28;20417;-77
2023/04/13 06:51:35;;;;;;;4.47;1.52;;;;;;;10.06;61.70;99372.19;5033044;28;20403;-78
2023/04/13 06:54:00;;;;;;;2.77;1.10;;;;;;;10.15;61.72;99376.03;5049221;28;20490;-76
2023/04/13 06:56:25;;;;;;;6.77;1.10;;;;;;;10.18;61.34;99376.28;5039653;28;20426;-76
2023/04/13 06:58:51;;;;;;;3.40;1.43;;;;;;;10.17;61.25;99379.28;5037734;28;20926;-75
2023/04/13 07:01:16;;;;;;;2.80;1.07;;;;;;;10.20;61.54;99374.16;5042451;28;20416;-76
2023/04/13 07:03:42;;;;;;;7.07;1.00;;;;;;;10.33;61.31;99370.09;5047460;28;20511;-74
2023/04/13 07:06:08;;;;;;;4.25;1.23;;;;;;;10.37;60.82;99365.78;5038352;28;20489;-76
2023/04/13 07:08:34;;;;;;;2.90;0.90;;;;;;;10.43;60.62;99372.00;5038158;28;20817;-76
2023/04/13 07:11:01;;;;;;;2.60;1.17;;;;;;;10.49;60.35;99369.03;5046616;28;20419;-78
2023/04/13 07:13:26;;;;;;;5.25;1.20;;;;;;;10.53;60.86;99369.28;5032222;28;20509;-76
2023/04/13 07:15:52;;;;;;;4.93;1.43;;;;;;;10.77;60.25;99368.47;5033387;28;20545;-75
2023/04/13 07:18:17;;;;;;;6.07;0.97;;;;;;;11.08;59.58;99363.00;5029985;28;20400;-75
2023/04/13 07:20:42;;;;;;;7.80;1.27;;;;;;;11.18;58.96;99371.94;5028211;28;20953;-76
2023/04/13 07:23:08;;;;;;;6.13;1.30;;;;;;;11.25;58.89;99371.66;5025424;28;20403;-77
2023/04/13 07:25:33;;;;;;;4.53;1.40;;;;;;;11.15;58.82;99361.63;5031764;28;20403;-78
2023/04/13 07:27:59;;;;;;;3.87;1.20;;;;;;;11.14;58.61;99368.13;5029702;28;20478;-77
2023/04/13 07:30:25;;;;;;;5.53;1.40;;;;;;;11.16;58.51;99362.44;5048755;28;20395;-77
2023/04/13 07:32:51;;;;;;;7.28;1.23;;;;;;;11.23;58.73;99361.06;5033495;28;20413;-78
2023/04/13 07:35:16;;;;;;;5.67;1.30;;;;;;;11.24;58.02;99359.97;5032567;28;20414;-78
2023/04/13 07:37:42;;;;;;;9.10;2.40;;;;;;;11.33;58.40;99360.22;5028802;28;20443;-77
2023/04/13 07:40:07;;;;;;;6.70;1.47;;;;;;;11.60;57.49;99359.84;5019178;28;20439;-77
2023/04/13 07:42:33;;;;;;;5.13;1.00;;;;;;;11.73;56.80;99351.94;5027437;28;20431;-76
2023/04/13 07:44:58;;;;;;;5.27;1.33;;;;;;;11.78;56.90;99357.38;5028938;28;20425;-78
2023/04/13 07:47:23;;;;;;;5.47;1.47;;;;;;;11.70;56.90;99347.06;5033985;28;20499;-79
2023/04/13 07:49:49;;;;;;;7.30;1.50;;;;;;;11.70;56.75;99355.22;5031569;28;20401;-78
2023/04/13 07:52:14;;;;;;;7.13;1.37;;;;;;;11.86;56.82;99355.94;5036452;28;20408;-77
2023/04/13 07:54:39;;;;;;;6.68;1.10;;;;;;;12.10;56.23;99378.63;5036165;28;20411;-78
2023/04/13 07:57:05;;;;;;;8.43;1.13;;;;;;;12.03;55.97;99377.31;5031625;28;20898;-78
2023/04/13 07:59:30;;;;;;;6.30;1.37;;;;;;;12.01;56.11;99377.59;5028319;28;20502;-80
2023/04/13 08:01:55;;;;;;;4.03;1.20;;;;;;;11.89;56.66;99387.97;5029495;28;20465;-78
2023/04/13 08:04:21;;;;;;;6.27;1.20;;;;;;;11.71;58.03;99392.13;5033463;28;20950;-79
2023/04/13 08:06:47;;;;;;;5.77;1.30;;;;;;;11.42;60.23;99391.94;5030251;28;20515;-75
2023/04/13 08:09:12;;;;;;;8.43;1.48;;;;;;;11.10;62.50;99405.00;5032577;28;20418;-75
2023/04/13 08:11:38;;;;;;;6.87;1.50;;;;;;;10.90;64.23;99400.44;5034875;28;20406;-75
2023/04/13 08:14:03;;;;;;;8.10;1.50;;;;;;;10.78;65.47;99404.50;5031373;28;20793;-75
2023/04/13 08:16:33;;;;;;;8.43;1.93;;;;;;;10.71;66.17;99407.50;5054686;28;20415;-75
2023/04/13 08:19:00;;;;;;;13.63;1.88;;;;;;;10.59;67.08;99412.38;5047493;28;20409;-75
2023/04/13 08:21:25;;;;;;;8.45;1.80;;;;;;;10.44;67.92;99414.25;5047207;28;20405;-75
2023/04/13 08:23:50;;;;;;;5.73;1.57;;;;;;;10.45;67.84;99411.28;5044599;28;20405;-75
2023/04/13 08:26:19;;;;;;;5.17;1.33;;;;;;;10.41;68.25;99416.41;5042592;28;20866;-76
2023/04/13 08:28:48;;;;;;;6.05;1.90;;;;;;;10.39;68.58;99415.88;5043193;28;20418;-76
2023/04/13 08:31:14;;;;;;;7.10;1.92;;;;;;;10.38;68.67;99416.94;5029628;28;20437;-76
2023/04/13 08:33:40;;;;;;;8.57;1.52;;;;;;;10.41;68.36;99412.88;5042167;28;20801;-76
2023/04/13 08:36:06;;;;;;;7.73;1.87;;;;;;;10.32;68.24;99419.91;5028999;28;20431;-76
2023/04/13 08:38:32;;;;;;;7.77;1.40;;;;;;;10.25;68.69;99424.78;5052304;28;20415;-75
2023/04/13 08:41:00;;;;;;;6.55;1.52;;;;;;;10.40;68.83;99422.13;5037929;28;20406;-75
2023/04/13 08:43:26;;;;;;;7.45;1.60;;;;;;;10.46;68.57;99423.75;5031635;28;20401;-75
2023/04/13 08:45:51;;;;;;;5.22;1.85;;;;;;;10.49;68.29;99419.66;5055642;28;20414;-75
2023/04/13 08:48:18;;;;;;;6.85;1.23;;;;;;;10.54;68.41;99430.53;5058461;28;20404;-75
2023/04/13 08:50:44;;;;;;;6.90;1.48;;;;;;;10.61;68.58;99433.75;5034458;28;20430;-75
2023/04/13 08:53:10;;;;;;;12.73;1.92;;;;;;;10.67;68.54;99433.50;5032736;28;20876;-75
2023/04/13 08:55:42;;;;;;;7.37;1.73;;;;;;;10.74;68.90;99428.63;5047847;28;20424;-75
2023/04/13 08:58:11;;;;;;;8.63;1.88;;;;;;;10.81;69.16;99431.88;5035018;28;20915;-75
2023/04/13 09:00:36;;;;;;;8.82;1.60;;;;;;;10.76;69.09;99437.31;5043503;28;20463;-75
2023/04/13 09:03:05;;;;;;;7.37;1.50;;;;;;;10.78;69.49;99440.56;5039732;28;20412;-75
2023/04/13 09:05:35;;;;;;;9.45;2.47;;;;;;;10.73;69.52;99443.28;5034263;28;20454;-75
2023/04/13 09:08:05;;;;;;;7.18;1.75;;;;;;;10.70;69.69;99445.72;5031747;28;20419;-75
2023/04/13 09:10:31;;;;;;;7.50;2.05;;;;;;;10.79;69.81;99442.19;5049753;28;20426;-75
2023/04/13 09:12:56;;;;;;;5.93;1.43;;;;;;;10.99;69.69;99452.22;5058687;28;20416;-75
2023/04/13 09:15:22;;;;;;;8.40;1.90;;;;;;;11.23;69.49;99450.56;5049096;28;20883;-74
2023/04/13 09:17:47;;;;;;;10.48;2.15;;;;;;;11.46;69.24;99449.97;5023619;28;20417;-75
2023/04/13 09:20:17;;;;;;;6.47;1.92;;;;;;;11.60;69.54;99449.38;5039158;28;20424;-75
2023/04/13 09:22:42;;;;;;;8.73;1.58;;;;;;;11.86;69.02;99449.06;5048626;28;20401;-75
2023/04/13 09:25:28;;;;;;;9.30;1.97;;;;;;;11.78;68.46;99440.69;5036707;28;20417;-75
2023/04/13 09:27:55;;;;;;;6.45;1.65;;;;;;;11.53;69.01;99449.69;5044241;28;20471;-75
2023/04/13 09:30:22;;;;;;;7.03;1.90;;;;;;;11.32;68.72;99450.81;5037492;28;20815;-74
2023/04/13 09:33:01;;;;;;;7.75;1.50;;;;;;;11.38;68.58;99455.97;5037357;28;20406;-76
2023/04/13 09:35:28;;;;;;;9.40;1.85;;;;;;;11.56;68.34;99459.19;5043624;28;20399;-74
2023/04/13 09:37:54;;;;;;;9.60;1.88;;;;;;;11.80;67.77;99462.94;5035467;28;20417;-75
2023/04/13 09:40:20;;;;;;;6.05;1.60;;;;;;;11.81;67.78;99457.25;5036102;28;20498;-75
2023/04/13 09:43:03;;;;;;;7.97;1.45;;;;;;;12.38;66.59;99453.16;5041833;28;20501;-75
2023/04/13 09:45:43;;;;;;;3.97;1.38;;;;;;;12.76;64.64;99452.34;5032940;28;20908;-77
2023/04/13 09:48:17;;;;;;;3.67;1.20;;;;;;;13.63;63.06;99466.03;5034369;28;20416;-76
2023/04/13 09:50:43;;;;;;;5.22;1.33;;;;;;;14.99;59.70;99461.47;5062769;28;20421;-75
2023/04/13 09:53:09;;;;;;;5.27;1.50;;;;;;;15.81;56.65;99454.25;5042235;28;20408;-74
2023/04/13 09:55:37;;;;;;;6.82;1.42;;;;;;;16.67;54.42;99459.81;5044737;28;20401;-74
2023/04/13 09:58:08;;;;;;;6.20;1.55;;;;;;;17.75;51.72;99455.72;5041306;28;20398;-74
2023/04/13 10:00:37;;;;;;;5.75;1.42;;;;;;;16.82;50.64;99459.50;5035007;28;20487;-74
2023/04/13 10:03:05;;;;;;;5.10;1.13;;;;;;;16.38;52.34;99462.91;5039660;28;20518;-75
2023/04/13 10:05:33;;;;;;;6.68;1.65;;;;;;;15.66;52.53;99459.22;5059342;28;20421;-74
2023/04/13 10:07:58;;;;;;;5.88;1.50;;;;;;;15.59;53.24;99465.06;5035939;28;20411;-75
2023/04/13 10:10:25;;;;;;;6.53;2.37;;;;;;;15.37;53.18;99459.47;5039110;28;20819;-76
2023/04/13 10:12:55;;;;;;;4.10;2.03;;;;;;;15.14;53.89;99466.69;5033930;28;20908;-79
2023/04/13 10:15:38;;;;;;;5.65;1.40;;;;;;;15.10;54.40;99457.47;5034738;28;20437;-75
2023/04/13 10:18:32;;;;;;;7.50;1.83;;;;;;;14.69;53.92;99461.94;5031797;28;20443;-76
2023/04/13 10:20:58;;;;;;;4.83;1.60;;;;;;;13.95;55.33;99458.84;5049042;28;20463;-76
2023/04/13 10:23:26;;;;;;;4.00;1.25;;;;;;;13.59;55.99;99454.09;5045915;28;20818;-76
2023/04/13 10:25:52;;;;;;;6.30;1.40;;;;;;;13.44;56.88;99444.97;5038929;28;20933;-76
2023/04/13 10:28:19;;;;;;;4.60;1.73;;;;;;;13.37;57.23;99451.88;5036121;28;20905;-77
2023/04/13 10:30:52;;;;;;;6.05;1.13;;;;;;;13.38;57.44;99448.84;5042367;28;20445;-76
2023/04/13 10:33:17;;;;;;;9.15;1.70;;;;;;;13.48;57.42;99459.63;5035562;28;20403;-77
2023/04/13 10:35:55;;;;;;;5.32;1.50;;;;;;;13.59;56.52;99451.34;5041906;28;20431;-76
2023/04/13 10:38:20;;;;;;;4.55;1.35;;;;;;;13.96;54.72;99454.19;5031937;28;20406;-75
2023/04/13 10:40:47;;;;;;;6.10;1.37;;;;;;;14.10;54.49;99457.00;5040956;28;20750;-75
2023/04/13 10:43:24;;;;;;;4.88;1.38;;;;;;;16.10;51.41;99445.78;5038245;28;20422;-75
2023/04/13 10:45:49;;;;;;;5.40;1.30;;;;;;;18.72;45.88;99449.03;5036087;28;20930;-75
2023/04/13 10:48:20;;;;;;;6.20;1.67;;;;;;;20.19;42.82;99429.03;5038495;28;20428;-74
2023/04/13 10:50:56;;;;;;;7.10;3.47;;;;;;;21.01;41.22;99438.47;5043865;28;20409;-75
2023/04/13 10:53:29;;;;;;;1999.90;921.72;;;;;;;21.38;40.30;99435.88;5043466;28;20819;-75
2023/04/13 10:55:54;;;;;;;1999.90;999.90;;;;;;;22.30;39.05;99438.94;5038859;28;20754;-75
2023/04/13 10:58:19;;;;;;;1999.90;999.90;;;;;;;20.77;39.95;99441.13;5028963;28;20402;-75
2023/04/13 11:00:46;;;;;;;1999.90;999.90;;;;;;;19.39;42.21;99438.28;5035497;28;20405;-75
2023/04/13 11:03:15;;;;;;;1999.90;999.90;;;;;;;18.51;43.49;99437.88;5045283;28;20432;-75
2023/04/13 11:05:40;;;;;;;1999.90;999.90;;;;;;;17.25;45.90;99433.22;5026784;28;20425;-77
2023/04/13 11:08:06;;;;;;;1999.90;999.90;;;;;;;16.63;47.31;99437.75;5028798;28;20572;-76
2023/04/13 11:10:31;;;;;;;1999.90;999.90;;;;;;;16.32;47.96;99437.63;5048351;28;20412;-76
2023/04/13 11:12:57;;;;;;;1999.90;999.90;;;;;;;16.22;48.77;99440.56;5024397;28;20408;-76
2023/04/13 11:15:26;;;;;;;1999.90;999.90;;;;;;;16.10;48.99;99430.16;5033470;28;20415;-76
2023/04/13 11:17:56;;;;;;;1999.90;999.90;;;;;;;16.32;47.62;99431.34;5015530;28;20397;-76
2023/04/13 11:20:33;;;;;;;1999.90;999.90;;;;;;;15.67;48.60;99428.06;5020776;28;20922;-76
2023/04/13 11:23:02;;;;;;;1999.90;999.90;;;;;;;15.26;49.57;99430.72;5029089;28;20899;-76
2023/04/13 11:25:28;;;;;;;1999.90;999.90;;;;;;;16.28;49.60;99417.47;5028961;28;20454;-76
2023/04/13 11:27:59;;;;;;;1999.90;999.90;;;;;;;19.13;44.31;99418.31;5031209;28;20417;-76
2023/04/13 11:30:25;;;;;;;1999.90;999.90;;;;;;;19.36;42.27;99418.91;5044149;28;20406;-76
2023/04/13 11:32:52;;;;;;;1999.90;999.90;;;;;;;17.53;43.97;99415.47;5033156;28;20963;-76
2023/04/13 11:35:18;;;;;;;1999.90;999.90;;;;;;;16.59;46.37;99420.38;5030744;28;20411;-77